sensor_id;sensor_type;location;lat;lon;timestamp;P1;durP1;ratioP1;P2;durP2;ratioP2
26774;SDS011;14362;51.902;7.626;2023-09-19T00:01:40;8.68;;;3.08;;
26774;SDS011;14362;51.902;7.626;2023-09-19T00:05:42;8.98;;;3.03;;
26774;SDS011;14362;51.902;7.626;2023-09-19T00:09:44;6.65;;;2.78;;
26774;SDS011;14362;51.902;7.626;2023-09-19T00:13:47;8.85;;;3.00;;
26774;SDS011;14362;51.902;7.626;2023-09-19T00:17:51;10.18;;;2.83;;
26774;SDS011;14362;51.902;7.626;2023-09-19T00:21:53;9.60;;;2.83;;
26774;SDS011;14362;51.902;7.626;2023-09-19T00:25:54;12.52;;;3.20;;
26774;SDS011;14362;51.902;7.626;2023-09-19T00:34:01;13.20;;;3.63;;
26774;SDS011;14362;51.902;7.626;2023-09-19T00:38:06;9.32;;;2.97;;
26774;SDS011;14362;51.902;7.626;2023-09-19T00:42:07;10.20;;;3.03;;
26774;SDS011;14362;51.902;7.626;2023-09-19T00:46:09;12.98;;;3.80;;
26774;SDS011;14362;51.902;7.626;2023-09-19T00:50:11;9.98;;;3.28;;
26774;SDS011;14362;51.902;7.626;2023-09-19T00:54:14;10.02;;;3.08;;
26774;SDS011;14362;51.902;7.626;2023-09-19T00:58:18;11.43;;;3.28;;
26774;SDS011;14362;51.902;7.626;2023-09-19T01:02:20;11.20;;;3.38;;
26774;SDS011;14362;51.902;7.626;2023-09-19T01:06:23;10.48;;;4.05;;
26774;SDS011;14362;51.902;7.626;2023-09-19T01:10:26;6.53;;;3.30;;
26774;SDS011;14362;51.902;7.626;2023-09-19T01:14:30;13.35;;;3.25;;
26774;SDS011;14362;51.902;7.626;2023-09-19T01:18:35;11.85;;;3.28;;
26774;SDS011;14362;51.902;7.626;2023-09-19T01:22:46;12.32;;;3.17;;
26774;SDS011;14362;51.902;7.626;2023-09-19T01:26:56;10.55;;;3.15;;
26774;SDS011;14362;51.902;7.626;2023-09-19T01:31:06;12.27;;;3.33;;
26774;SDS011;14362;51.902;7.626;2023-09-19T01:35:10;15.27;;;3.47;;
26774;SDS011;14362;51.902;7.626;2023-09-19T01:39:13;14.73;;;3.88;;
26774;SDS011;14362;51.902;7.626;2023-09-19T01:43:16;10.63;;;3.10;;
26774;SDS011;14362;51.902;7.626;2023-09-19T01:47:23;12.30;;;3.42;;
26774;SDS011;14362;51.902;7.626;2023-09-19T01:51:33;8.43;;;2.97;;
26774;SDS011;14362;51.902;7.626;2023-09-19T01:55:41;13.10;;;3.38;;
26774;SDS011;14362;51.902;7.626;2023-09-19T01:59:45;13.85;;;3.33;;
26774;SDS011;14362;51.902;7.626;2023-09-19T02:03:51;11.95;;;3.75;;
26774;SDS011;14362;51.902;7.626;2023-09-19T02:07:53;11.70;;;4.22;;
26774;SDS011;14362;51.902;7.626;2023-09-19T02:11:55;11.63;;;3.88;;
26774;SDS011;14362;51.902;7.626;2023-09-19T02:15:56;13.45;;;3.92;;
26774;SDS011;14362;51.902;7.626;2023-09-19T02:19:59;14.63;;;4.13;;
26774;SDS011;14362;51.902;7.626;2023-09-19T02:24:00;14.15;;;3.50;;
26774;SDS011;14362;51.902;7.626;2023-09-19T02:28:04;17.48;;;4.13;;
26774;SDS011;14362;51.902;7.626;2023-09-19T02:32:05;10.68;;;3.80;;
26774;SDS011;14362;51.902;7.626;2023-09-19T02:36:08;14.73;;;3.85;;
26774;SDS011;14362;51.902;7.626;2023-09-19T02:40:09;10.20;;;3.33;;
26774;SDS011;14362;51.902;7.626;2023-09-19T02:44:18;8.32;;;3.55;;
26774;SDS011;14362;51.902;7.626;2023-09-19T02:48:20;14.98;;;3.85;;
26774;SDS011;14362;51.902;7.626;2023-09-19T02:52:22;15.52;;;3.85;;
26774;SDS011;14362;51.902;7.626;2023-09-19T02:56:24;12.70;;;3.58;;
26774;SDS011;14362;51.902;7.626;2023-09-19T03:00:26;12.23;;;3.35;;
26774;SDS011;14362;51.902;7.626;2023-09-19T03:04:28;15.25;;;4.03;;
26774;SDS011;14362;51.902;7.626;2023-09-19T03:08:32;11.85;;;3.42;;
26774;SDS011;14362;51.902;7.626;2023-09-19T03:12:36;13.40;;;3.92;;
26774;SDS011;14362;51.902;7.626;2023-09-19T03:16:40;12.02;;;3.80;;
26774;SDS011;14362;51.902;7.626;2023-09-19T03:20:43;13.57;;;3.33;;
26774;SDS011;14362;51.902;7.626;2023-09-19T03:24:46;11.55;;;3.20;;
26774;SDS011;14362;51.902;7.626;2023-09-19T03:28:48;11.45;;;3.22;;
26774;SDS011;14362;51.902;7.626;2023-09-19T03:32:49;15.25;;;3.28;;
26774;SDS011;14362;51.902;7.626;2023-09-19T03:36:51;9.70;;;3.40;;
26774;SDS011;14362;51.902;7.626;2023-09-19T03:40:53;11.20;;;3.17;;
26774;SDS011;14362;51.902;7.626;2023-09-19T03:44:55;11.23;;;3.40;;
26774;SDS011;14362;51.902;7.626;2023-09-19T03:48:56;14.60;;;3.70;;
26774;SDS011;14362;51.902;7.626;2023-09-19T03:52:58;11.88;;;3.83;;
26774;SDS011;14362;51.902;7.626;2023-09-19T03:57:00;11.02;;;3.60;;
26774;SDS011;14362;51.902;7.626;2023-09-19T04:01:03;11.95;;;4.00;;
26774;SDS011;14362;51.902;7.626;2023-09-19T04:05:05;11.48;;;3.30;;
26774;SDS011;14362;51.902;7.626;2023-09-19T04:09:07;14.98;;;3.55;;
26774;SDS011;14362;51.902;7.626;2023-09-19T04:13:10;11.82;;;3.60;;
26774;SDS011;14362;51.902;7.626;2023-09-19T04:17:11;10.68;;;3.53;;
26774;SDS011;14362;51.902;7.626;2023-09-19T04:21:12;13.38;;;3.10;;
26774;SDS011;14362;51.902;7.626;2023-09-19T04:25:14;12.43;;;3.38;;
26774;SDS011;14362;51.902;7.626;2023-09-19T04:29:16;11.43;;;3.80;;
26774;SDS011;14362;51.902;7.626;2023-09-19T04:33:19;13.23;;;2.67;;
26774;SDS011;14362;51.902;7.626;2023-09-19T04:37:20;15.55;;;3.83;;
26774;SDS011;14362;51.902;7.626;2023-09-19T04:41:22;12.82;;;3.42;;
26774;SDS011;14362;51.902;7.626;2023-09-19T04:45:25;13.63;;;3.65;;
26774;SDS011;14362;51.902;7.626;2023-09-19T04:49:26;10.57;;;3.28;;
26774;SDS011;14362;51.902;7.626;2023-09-19T04:53:30;9.13;;;3.17;;
26774;SDS011;14362;51.902;7.626;2023-09-19T04:57:31;11.13;;;4.18;;
26774;SDS011;14362;51.902;7.626;2023-09-19T05:01:34;13.23;;;3.60;;
26774;SDS011;14362;51.902;7.626;2023-09-19T05:05:35;10.98;;;4.00;;
26774;SDS011;14362;51.902;7.626;2023-09-19T05:09:38;12.98;;;4.03;;
26774;SDS011;14362;51.902;7.626;2023-09-19T05:13:48;13.75;;;3.42;;
26774;SDS011;14362;51.902;7.626;2023-09-19T05:17:51;13.73;;;3.03;;
26774;SDS011;14362;51.902;7.626;2023-09-19T05:21:54;11.02;;;3.45;;
26774;SDS011;14362;51.902;7.626;2023-09-19T05:25:56;10.57;;;3.17;;
26774;SDS011;14362;51.902;7.626;2023-09-19T05:29:59;16.05;;;3.70;;
26774;SDS011;14362;51.902;7.626;2023-09-19T05:34:02;10.73;;;2.80;;
26774;SDS011;14362;51.902;7.626;2023-09-19T05:38:03;13.77;;;3.92;;
26774;SDS011;14362;51.902;7.626;2023-09-19T05:42:05;12.77;;;3.33;;
26774;SDS011;14362;51.902;7.626;2023-09-19T05:46:08;10.05;;;3.15;;
26774;SDS011;14362;51.902;7.626;2023-09-19T05:50:11;9.15;;;3.13;;
26774;SDS011;14362;51.902;7.626;2023-09-19T05:54:12;12.23;;;3.40;;
26774;SDS011;14362;51.902;7.626;2023-09-19T05:58:13;10.43;;;3.20;;
26774;SDS011;14362;51.902;7.626;2023-09-19T06:02:17;9.43;;;3.25;;
26774;SDS011;14362;51.902;7.626;2023-09-19T06:06:21;13.88;;;3.95;;
26774;SDS011;14362;51.902;7.626;2023-09-19T06:10:24;13.52;;;3.95;;
26774;SDS011;14362;51.902;7.626;2023-09-19T06:14:25;11.07;;;3.80;;
26774;SDS011;14362;51.902;7.626;2023-09-19T06:18:26;8.48;;;2.95;;
26774;SDS011;14362;51.902;7.626;2023-09-19T06:22:30;12.23;;;3.63;;
26774;SDS011;14362;51.902;7.626;2023-09-19T06:26:32;16.65;;;3.90;;
26774;SDS011;14362;51.902;7.626;2023-09-19T06:30:33;12.25;;;3.70;;
26774;SDS011;14362;51.902;7.626;2023-09-19T06:34:34;10.02;;;3.63;;
26774;SDS011;14362;51.902;7.626;2023-09-19T06:38:37;8.38;;;3.40;;
26774;SDS011;14362;51.902;7.626;2023-09-19T06:42:40;13.75;;;4.28;;
26774;SDS011;14362;51.902;7.626;2023-09-19T06:46:41;12.18;;;3.40;;
26774;SDS011;14362;51.902;7.626;2023-09-19T06:50:44;17.67;;;3.53;;
26774;SDS011;14362;51.902;7.626;2023-09-19T06:54:47;11.07;;;3.67;;
26774;SDS011;14362;51.902;7.626;2023-09-19T06:58:50;14.77;;;4.05;;
26774;SDS011;14362;51.902;7.626;2023-09-19T07:02:54;8.40;;;3.22;;
26774;SDS011;14362;51.902;7.626;2023-09-19T07:06:56;10.00;;;3.35;;
26774;SDS011;14362;51.902;7.626;2023-09-19T07:10:58;9.07;;;2.95;;
26774;SDS011;14362;51.902;7.626;2023-09-19T07:15:00;11.45;;;3.55;;
26774;SDS011;14362;51.902;7.626;2023-09-19T07:19:01;10.93;;;3.80;;
26774;SDS011;14362;51.902;7.626;2023-09-19T07:23:16;11.55;;;3.63;;
26774;SDS011;14362;51.902;7.626;2023-09-19T07:27:19;10.82;;;4.25;;
26774;SDS011;14362;51.902;7.626;2023-09-19T07:31:20;14.50;;;4.22;;
26774;SDS011;14362;51.902;7.626;2023-09-19T07:35:22;12.25;;;3.50;;
26774;SDS011;14362;51.902;7.626;2023-09-19T07:39:24;10.30;;;3.58;;
26774;SDS011;14362;51.902;7.626;2023-09-19T07:43:26;15.85;;;4.20;;
26774;SDS011;14362;51.902;7.626;2023-09-19T07:47:28;11.45;;;3.78;;
26774;SDS011;14362;51.902;7.626;2023-09-19T07:51:30;12.02;;;3.85;;
26774;SDS011;14362;51.902;7.626;2023-09-19T07:55:33;13.60;;;4.15;;
26774;SDS011;14362;51.902;7.626;2023-09-19T07:59:35;17.30;;;4.55;;
26774;SDS011;14362;51.902;7.626;2023-09-19T08:03:38;10.25;;;3.70;;
26774;SDS011;14362;51.902;7.626;2023-09-19T08:07:41;12.77;;;3.53;;
26774;SDS011;14362;51.902;7.626;2023-09-19T08:11:42;11.70;;;3.67;;
26774;SDS011;14362;51.902;7.626;2023-09-19T08:15:47;17.25;;;3.78;;
26774;SDS011;14362;51.902;7.626;2023-09-19T08:19:48;13.43;;;4.07;;
26774;SDS011;14362;51.902;7.626;2023-09-19T08:23:52;12.95;;;3.92;;
26774;SDS011;14362;51.902;7.626;2023-09-19T08:27:54;9.90;;;3.42;;
26774;SDS011;14362;51.902;7.626;2023-09-19T08:31:59;14.55;;;3.50;;
26774;SDS011;14362;51.902;7.626;2023-09-19T08:36:00;11.55;;;3.83;;
26774;SDS011;14362;51.902;7.626;2023-09-19T08:40:04;14.48;;;4.68;;
26774;SDS011;14362;51.902;7.626;2023-09-19T08:48:19;11.25;;;3.72;;
26774;SDS011;14362;51.902;7.626;2023-09-19T08:52:25;11.45;;;3.65;;
26774;SDS011;14362;51.902;7.626;2023-09-19T08:56:26;13.10;;;3.70;;
26774;SDS011;14362;51.902;7.626;2023-09-19T09:00:30;10.70;;;4.03;;
26774;SDS011;14362;51.902;7.626;2023-09-19T09:04:33;13.13;;;4.43;;
26774;SDS011;14362;51.902;7.626;2023-09-19T09:08:35;11.15;;;3.85;;
26774;SDS011;14362;51.902;7.626;2023-09-19T09:12:36;11.07;;;4.10;;
26774;SDS011;14362;51.902;7.626;2023-09-19T09:16:39;13.23;;;4.03;;
26774;SDS011;14362;51.902;7.626;2023-09-19T09:20:42;9.52;;;3.90;;
26774;SDS011;14362;51.902;7.626;2023-09-19T09:24:51;16.53;;;4.93;;
26774;SDS011;14362;51.902;7.626;2023-09-19T09:28:53;10.93;;;3.65;;
26774;SDS011;14362;51.902;7.626;2023-09-19T09:33:04;14.70;;;4.35;;
26774;SDS011;14362;51.902;7.626;2023-09-19T09:37:13;10.93;;;3.53;;
26774;SDS011;14362;51.902;7.626;2023-09-19T09:41:17;11.95;;;3.70;;
26774;SDS011;14362;51.902;7.626;2023-09-19T09:45:27;12.73;;;4.05;;
26774;SDS011;14362;51.902;7.626;2023-09-19T09:49:37;11.70;;;4.00;;
26774;SDS011;14362;51.902;7.626;2023-09-19T09:53:40;15.23;;;3.60;;
26774;SDS011;14362;51.902;7.626;2023-09-19T09:57:44;8.90;;;3.30;;
26774;SDS011;14362;51.902;7.626;2023-09-19T10:01:46;10.77;;;3.65;;
26774;SDS011;14362;51.902;7.626;2023-09-19T10:05:54;13.00;;;3.35;;
26774;SDS011;14362;51.902;7.626;2023-09-19T10:09:57;11.23;;;3.40;;
26774;SDS011;14362;51.902;7.626;2023-09-19T10:14:06;9.13;;;3.35;;
26774;SDS011;14362;51.902;7.626;2023-09-19T10:18:10;10.98;;;3.85;;
26774;SDS011;14362;51.902;7.626;2023-09-19T10:22:18;11.20;;;3.67;;
26774;SDS011;14362;51.902;7.626;2023-09-19T10:26:23;12.77;;;4.60;;
26774;SDS011;14362;51.902;7.626;2023-09-19T10:30:26;10.27;;;2.97;;
26774;SDS011;14362;51.902;7.626;2023-09-19T10:38:31;10.85;;;3.60;;
26774;SDS011;14362;51.902;7.626;2023-09-19T10:42:35;14.65;;;3.95;;
26774;SDS011;14362;51.902;7.626;2023-09-19T10:46:38;11.10;;;3.58;;
26774;SDS011;14362;51.902;7.626;2023-09-19T10:50:43;8.02;;;3.45;;
26774;SDS011;14362;51.902;7.626;2023-09-19T10:54:45;11.02;;;3.80;;
26774;SDS011;14362;51.902;7.626;2023-09-19T10:58:53;13.32;;;3.67;;
26774;SDS011;14362;51.902;7.626;2023-09-19T11:03:21;11.98;;;3.90;;
26774;SDS011;14362;51.902;7.626;2023-09-19T11:07:30;9.17;;;3.60;;
26774;SDS011;14362;51.902;7.626;2023-09-19T11:11:42;12.43;;;3.92;;
26774;SDS011;14362;51.902;7.626;2023-09-19T11:20:25;12.15;;;3.63;;
26774;SDS011;14362;51.902;7.626;2023-09-19T11:24:51;9.70;;;3.70;;
26774;SDS011;14362;51.902;7.626;2023-09-19T11:29:06;14.38;;;3.70;;
26774;SDS011;14362;51.902;7.626;2023-09-19T11:33:25;13.18;;;3.60;;
26774;SDS011;14362;51.902;7.626;2023-09-19T11:46:34;11.05;;;3.35;;
26774;SDS011;14362;51.902;7.626;2023-09-19T11:50:35;10.43;;;3.58;;
26774;SDS011;14362;51.902;7.626;2023-09-19T11:54:37;9.10;;;3.05;;
26774;SDS011;14362;51.902;7.626;2023-09-19T11:58:41;11.43;;;3.80;;
26774;SDS011;14362;51.902;7.626;2023-09-19T12:02:45;9.35;;;2.58;;
26774;SDS011;14362;51.902;7.626;2023-09-19T12:06:55;9.35;;;2.88;;
26774;SDS011;14362;51.902;7.626;2023-09-19T12:10:58;7.45;;;2.60;;
26774;SDS011;14362;51.902;7.626;2023-09-19T12:14:59;10.63;;;3.47;;
26774;SDS011;14362;51.902;7.626;2023-09-19T12:19:20;6.00;;;2.60;;
26774;SDS011;14362;51.902;7.626;2023-09-19T12:23:22;8.80;;;2.97;;
26774;SDS011;14362;51.902;7.626;2023-09-19T12:27:23;6.10;;;2.55;;
26774;SDS011;14362;51.902;7.626;2023-09-19T12:31:28;9.05;;;2.67;;
26774;SDS011;14362;51.902;7.626;2023-09-19T12:35:34;7.75;;;2.90;;
26774;SDS011;14362;51.902;7.626;2023-09-19T12:39:35;11.50;;;3.28;;
26774;SDS011;14362;51.902;7.626;2023-09-19T12:43:36;7.00;;;2.42;;
26774;SDS011;14362;51.902;7.626;2023-09-19T12:47:39;9.80;;;3.05;;
26774;SDS011;14362;51.902;7.626;2023-09-19T12:51:44;10.38;;;3.17;;
26774;SDS011;14362;51.902;7.626;2023-09-19T12:55:46;12.13;;;3.38;;
26774;SDS011;14362;51.902;7.626;2023-09-19T12:59:51;14.45;;;3.03;;
26774;SDS011;14362;51.902;7.626;2023-09-19T13:08:19;6.68;;;2.55;;
26774;SDS011;14362;51.902;7.626;2023-09-19T13:12:37;7.57;;;2.55;;
26774;SDS011;14362;51.902;7.626;2023-09-19T13:16:52;9.05;;;2.53;;
26774;SDS011;14362;51.902;7.626;2023-09-19T13:21:06;8.85;;;2.53;;
26774;SDS011;14362;51.902;7.626;2023-09-19T13:25:12;14.70;;;3.08;;
26774;SDS011;14362;51.902;7.626;2023-09-19T13:29:15;5.95;;;2.35;;
26774;SDS011;14362;51.902;7.626;2023-09-19T13:33:18;7.57;;;2.63;;
26774;SDS011;14362;51.902;7.626;2023-09-19T13:37:22;7.93;;;2.40;;
26774;SDS011;14362;51.902;7.626;2023-09-19T13:41:25;5.97;;;2.50;;
26774;SDS011;14362;51.902;7.626;2023-09-19T13:45:26;6.17;;;2.50;;
26774;SDS011;14362;51.902;7.626;2023-09-19T13:49:30;9.30;;;2.73;;
26774;SDS011;14362;51.902;7.626;2023-09-19T13:53:32;4.07;;;2.25;;
26774;SDS011;14362;51.902;7.626;2023-09-19T13:57:35;7.18;;;2.10;;
26774;SDS011;14362;51.902;7.626;2023-09-19T14:01:36;8.77;;;2.40;;
26774;SDS011;14362;51.902;7.626;2023-09-19T14:05:37;7.82;;;2.20;;
26774;SDS011;14362;51.902;7.626;2023-09-19T14:09:39;9.88;;;2.05;;
26774;SDS011;14362;51.902;7.626;2023-09-19T14:13:41;5.90;;;2.00;;
26774;SDS011;14362;51.902;7.626;2023-09-19T14:17:46;4.85;;;1.95;;
26774;SDS011;14362;51.902;7.626;2023-09-19T14:21:50;5.43;;;1.83;;
26774;SDS011;14362;51.902;7.626;2023-09-19T14:25:52;5.82;;;1.60;;
26774;SDS011;14362;51.902;7.626;2023-09-19T14:29:55;7.18;;;2.10;;
26774;SDS011;14362;51.902;7.626;2023-09-19T14:33:57;8.23;;;1.85;;
26774;SDS011;14362;51.902;7.626;2023-09-19T14:37:59;8.07;;;2.10;;
26774;SDS011;14362;51.902;7.626;2023-09-19T14:42:01;8.80;;;1.98;;
26774;SDS011;14362;51.902;7.626;2023-09-19T14:46:04;6.00;;;2.00;;
26774;SDS011;14362;51.902;7.626;2023-09-19T14:50:07;6.60;;;1.83;;
26774;SDS011;14362;51.902;7.626;2023-09-19T14:54:09;14.93;;;2.97;;
26774;SDS011;14362;51.902;7.626;2023-09-19T14:58:10;8.00;;;1.92;;
26774;SDS011;14362;51.902;7.626;2023-09-19T15:02:13;6.45;;;1.90;;
26774;SDS011;14362;51.902;7.626;2023-09-19T15:10:19;4.35;;;2.05;;
26774;SDS011;14362;51.902;7.626;2023-09-19T15:14:22;6.40;;;2.20;;
26774;SDS011;14362;51.902;7.626;2023-09-19T15:18:26;4.90;;;1.73;;
26774;SDS011;14362;51.902;7.626;2023-09-19T15:22:27;3.70;;;1.50;;
26774;SDS011;14362;51.902;7.626;2023-09-19T15:26:29;6.15;;;1.95;;
26774;SDS011;14362;51.902;7.626;2023-09-19T15:30:30;5.07;;;1.63;;
26774;SDS011;14362;51.902;7.626;2023-09-19T15:34:33;5.53;;;1.80;;
26774;SDS011;14362;51.902;7.626;2023-09-19T15:42:50;6.22;;;1.60;;
26774;SDS011;14362;51.902;7.626;2023-09-19T15:46:52;5.13;;;1.77;;
26774;SDS011;14362;51.902;7.626;2023-09-19T15:50:54;6.93;;;1.73;;
26774;SDS011;14362;51.902;7.626;2023-09-19T15:54:56;4.07;;;1.45;;
26774;SDS011;14362;51.902;7.626;2023-09-19T15:58:57;4.97;;;1.58;;
26774;SDS011;14362;51.902;7.626;2023-09-19T16:02:58;4.32;;;1.50;;
26774;SDS011;14362;51.902;7.626;2023-09-19T16:07:02;2.55;;;1.50;;
26774;SDS011;14362;51.902;7.626;2023-09-19T16:11:04;5.50;;;1.85;;
26774;SDS011;14362;51.902;7.626;2023-09-19T16:15:09;7.45;;;1.30;;
26774;SDS011;14362;51.902;7.626;2023-09-19T16:19:11;3.85;;;1.42;;
26774;SDS011;14362;51.902;7.626;2023-09-19T16:23:14;4.65;;;1.17;;
26774;SDS011;14362;51.902;7.626;2023-09-19T16:27:15;3.50;;;1.08;;
26774;SDS011;14362;51.902;7.626;2023-09-19T16:31:21;6.18;;;1.17;;
26774;SDS011;14362;51.902;7.626;2023-09-19T16:35:22;3.20;;;1.27;;
26774;SDS011;14362;51.902;7.626;2023-09-19T16:39:25;4.63;;;1.20;;
26774;SDS011;14362;51.902;7.626;2023-09-19T16:43:26;4.07;;;1.23;;
26774;SDS011;14362;51.902;7.626;2023-09-19T16:47:28;5.07;;;1.73;;
26774;SDS011;14362;51.902;7.626;2023-09-19T16:51:29;10.57;;;1.50;;
26774;SDS011;14362;51.902;7.626;2023-09-19T16:55:34;4.90;;;1.17;;
26774;SDS011;14362;51.902;7.626;2023-09-19T17:03:36;7.15;;;1.50;;
26774;SDS011;14362;51.902;7.626;2023-09-19T17:07:40;2.75;;;1.10;;
26774;SDS011;14362;51.902;7.626;2023-09-19T17:11:42;5.30;;;1.20;;
26774;SDS011;14362;51.902;7.626;2023-09-19T17:19:48;6.93;;;1.38;;
26774;SDS011;14362;51.902;7.626;2023-09-19T17:23:49;4.03;;;1.33;;
26774;SDS011;14362;51.902;7.626;2023-09-19T17:27:52;3.30;;;1.02;;
26774;SDS011;14362;51.902;7.626;2023-09-19T17:31:53;6.60;;;1.17;;
26774;SDS011;14362;51.902;7.626;2023-09-19T17:36:05;2.85;;;1.40;;
26774;SDS011;14362;51.902;7.626;2023-09-19T17:40:07;3.97;;;1.40;;
26774;SDS011;14362;51.902;7.626;2023-09-19T17:44:11;4.65;;;1.20;;
26774;SDS011;14362;51.902;7.626;2023-09-19T17:48:13;4.57;;;1.15;;
26774;SDS011;14362;51.902;7.626;2023-09-19T17:52:14;5.30;;;1.52;;
26774;SDS011;14362;51.902;7.626;2023-09-19T17:56:16;6.53;;;1.40;;
26774;SDS011;14362;51.902;7.626;2023-09-19T18:00:19;3.47;;;1.42;;
26774;SDS011;14362;51.902;7.626;2023-09-19T18:04:21;3.20;;;1.13;;
26774;SDS011;14362;51.902;7.626;2023-09-19T18:08:23;5.05;;;1.38;;
26774;SDS011;14362;51.902;7.626;2023-09-19T18:12:24;5.22;;;1.40;;
26774;SDS011;14362;51.902;7.626;2023-09-19T18:16:27;5.88;;;1.30;;
26774;SDS011;14362;51.902;7.626;2023-09-19T18:20:32;3.53;;;1.17;;
26774;SDS011;14362;51.902;7.626;2023-09-19T18:24:33;2.95;;;1.17;;
26774;SDS011;14362;51.902;7.626;2023-09-19T18:28:35;5.15;;;1.58;;
26774;SDS011;14362;51.902;7.626;2023-09-19T18:32:39;2.25;;;1.45;;
26774;SDS011;14362;51.902;7.626;2023-09-19T18:36:41;3.08;;;1.25;;
26774;SDS011;14362;51.902;7.626;2023-09-19T18:40:42;4.88;;;1.50;;
26774;SDS011;14362;51.902;7.626;2023-09-19T18:44:43;5.88;;;1.77;;
26774;SDS011;14362;51.902;7.626;2023-09-19T18:48:51;3.50;;;1.50;;
26774;SDS011;14362;51.902;7.626;2023-09-19T18:52:52;4.13;;;1.30;;
26774;SDS011;14362;51.902;7.626;2023-09-19T18:56:53;4.25;;;1.77;;
26774;SDS011;14362;51.902;7.626;2023-09-19T19:00:59;4.47;;;1.42;;
26774;SDS011;14362;51.902;7.626;2023-09-19T19:09:03;6.00;;;1.48;;
26774;SDS011;14362;51.902;7.626;2023-09-19T19:13:05;3.28;;;1.73;;
26774;SDS011;14362;51.902;7.626;2023-09-19T19:17:07;5.60;;;1.88;;
26774;SDS011;14362;51.902;7.626;2023-09-19T19:21:08;4.13;;;1.27;;
26774;SDS011;14362;51.902;7.626;2023-09-19T19:25:14;4.38;;;1.70;;
26774;SDS011;14362;51.902;7.626;2023-09-19T19:29:15;4.47;;;1.80;;
26774;SDS011;14362;51.902;7.626;2023-09-19T19:33:17;6.03;;;1.55;;
26774;SDS011;14362;51.902;7.626;2023-09-19T19:37:21;5.00;;;2.20;;
26774;SDS011;14362;51.902;7.626;2023-09-19T19:41:24;6.53;;;1.77;;
26774;SDS011;14362;51.902;7.626;2023-09-19T19:45:25;6.28;;;1.40;;
26774;SDS011;14362;51.902;7.626;2023-09-19T19:49:27;4.35;;;1.30;;
26774;SDS011;14362;51.902;7.626;2023-09-19T19:53:28;3.08;;;1.75;;
26774;SDS011;14362;51.902;7.626;2023-09-19T19:57:31;6.60;;;2.00;;
26774;SDS011;14362;51.902;7.626;2023-09-19T20:01:32;6.38;;;1.92;;
26774;SDS011;14362;51.902;7.626;2023-09-19T20:05:36;3.15;;;1.40;;
26774;SDS011;14362;51.902;7.626;2023-09-19T20:09:39;6.32;;;1.75;;
26774;SDS011;14362;51.902;7.626;2023-09-19T20:13:42;5.07;;;1.70;;
26774;SDS011;14362;51.902;7.626;2023-09-19T20:17:43;6.25;;;2.10;;
26774;SDS011;14362;51.902;7.626;2023-09-19T20:21:44;7.13;;;1.80;;
26774;SDS011;14362;51.902;7.626;2023-09-19T20:25:46;3.10;;;1.60;;
26774;SDS011;14362;51.902;7.626;2023-09-19T20:29:49;3.08;;;1.55;;
26774;SDS011;14362;51.902;7.626;2023-09-19T20:33:50;4.28;;;1.70;;
26774;SDS011;14362;51.902;7.626;2023-09-19T20:37:51;4.47;;;1.55;;
26774;SDS011;14362;51.902;7.626;2023-09-19T20:42:00;4.65;;;2.10;;
26774;SDS011;14362;51.902;7.626;2023-09-19T20:46:02;7.45;;;1.80;;
26774;SDS011;14362;51.902;7.626;2023-09-19T20:50:05;5.60;;;1.92;;
26774;SDS011;14362;51.902;7.626;2023-09-19T20:54:06;5.50;;;1.92;;
26774;SDS011;14362;51.902;7.626;2023-09-19T20:58:08;7.75;;;2.17;;
26774;SDS011;14362;51.902;7.626;2023-09-19T21:02:11;6.43;;;2.20;;
26774;SDS011;14362;51.902;7.626;2023-09-19T21:06:12;4.00;;;1.90;;
26774;SDS011;14362;51.902;7.626;2023-09-19T21:10:15;6.05;;;1.67;;
26774;SDS011;14362;51.902;7.626;2023-09-19T21:14:16;8.98;;;1.90;;
26774;SDS011;14362;51.902;7.626;2023-09-19T21:18:18;6.40;;;2.22;;
26774;SDS011;14362;51.902;7.626;2023-09-19T21:22:20;6.28;;;2.28;;
26774;SDS011;14362;51.902;7.626;2023-09-19T21:26:22;4.60;;;1.67;;
26774;SDS011;14362;51.902;7.626;2023-09-19T21:30:23;4.65;;;2.05;;
26774;SDS011;14362;51.902;7.626;2023-09-19T21:34:25;6.43;;;1.85;;
26774;SDS011;14362;51.902;7.626;2023-09-19T21:38:27;6.38;;;1.90;;
26774;SDS011;14362;51.902;7.626;2023-09-19T21:42:28;6.63;;;2.13;;
26774;SDS011;14362;51.902;7.626;2023-09-19T21:46:30;8.55;;;1.92;;
26774;SDS011;14362;51.902;7.626;2023-09-19T21:50:32;5.40;;;1.73;;
26774;SDS011;14362;51.902;7.626;2023-09-19T21:54:36;6.55;;;2.40;;
26774;SDS011;14362;51.902;7.626;2023-09-19T21:58:38;7.10;;;2.10;;
26774;SDS011;14362;51.902;7.626;2023-09-19T22:02:39;5.35;;;2.15;;
26774;SDS011;14362;51.902;7.626;2023-09-19T22:06:41;4.68;;;1.92;;
26774;SDS011;14362;51.902;7.626;2023-09-19T22:10:43;5.53;;;2.03;;
26774;SDS011;14362;51.902;7.626;2023-09-19T22:14:46;5.00;;;1.88;;
26774;SDS011;14362;51.902;7.626;2023-09-19T22:18:47;5.35;;;2.00;;
26774;SDS011;14362;51.902;7.626;2023-09-19T22:22:51;5.13;;;2.10;;
26774;SDS011;14362;51.902;7.626;2023-09-19T22:26:53;6.07;;;1.90;;
26774;SDS011;14362;51.902;7.626;2023-09-19T22:30:55;5.65;;;2.03;;
26774;SDS011;14362;51.902;7.626;2023-09-19T22:34:56;5.63;;;2.00;;
26774;SDS011;14362;51.902;7.626;2023-09-19T22:38:59;7.07;;;1.70;;
26774;SDS011;14362;51.902;7.626;2023-09-19T22:43:01;8.07;;;1.70;;
26774;SDS011;14362;51.902;7.626;2023-09-19T22:47:06;7.15;;;2.03;;
26774;SDS011;14362;51.902;7.626;2023-09-19T22:51:08;4.35;;;1.83;;
26774;SDS011;14362;51.902;7.626;2023-09-19T22:55:14;4.00;;;2.20;;
26774;SDS011;14362;51.902;7.626;2023-09-19T22:59:23;5.10;;;2.22;;
26774;SDS011;14362;51.902;7.626;2023-09-19T23:03:25;7.38;;;2.50;;
26774;SDS011;14362;51.902;7.626;2023-09-19T23:07:28;6.40;;;2.08;;
26774;SDS011;14362;51.902;7.626;2023-09-19T23:11:31;6.97;;;2.33;;
26774;SDS011;14362;51.902;7.626;2023-09-19T23:15:39;6.25;;;2.15;;
26774;SDS011;14362;51.902;7.626;2023-09-19T23:19:41;5.57;;;2.22;;
26774;SDS011;14362;51.902;7.626;2023-09-19T23:23:43;8.88;;;2.33;;
26774;SDS011;14362;51.902;7.626;2023-09-19T23:27:47;5.72;;;2.10;;
26774;SDS011;14362;51.902;7.626;2023-09-19T23:31:50;7.68;;;1.90;;
26774;SDS011;14362;51.902;7.626;2023-09-19T23:35:51;6.65;;;2.40;;
26774;SDS011;14362;51.902;7.626;2023-09-19T23:39:53;7.05;;;2.40;;
26774;SDS011;14362;51.902;7.626;2023-09-19T23:43:56;6.45;;;2.30;;
26774;SDS011;14362;51.902;7.626;2023-09-19T23:47:58;5.05;;;2.33;;
26774;SDS011;14362;51.902;7.626;2023-09-19T23:52:00;4.80;;;2.03;;
26774;SDS011;14362;51.902;7.626;2023-09-19T23:56:01;8.10;;;2.13;;
